Aviation Digital Data Service (ADDS)

Output produced by METARs form (0810 UTC 30 August 2014)
found at http://aviationweather.gov/adds/metars/
 
KPBG 300539Z 3006/3106 00000KT P6SM SKC 
     FM301400 16009G19KT P6SM SCT200 
     FM310000 17009KT P6SM BKN150